sensor_id;sensor_type;location;lat;lon;timestamp;pressure;altitude;pressure_sealevel;temperature;humidity
58534;BME280;44109;52.398;7.024;2023-05-02T00:00:35;101617.72;;;11.13;100.00
58534;BME280;44109;52.398;7.024;2023-05-02T00:03:03;101614.78;;;10.93;100.00
58534;BME280;44109;52.398;7.024;2023-05-02T00:05:35;101616.25;;;11.03;100.00
58534;BME280;44109;52.398;7.024;2023-05-02T00:08:07;101621.75;;;10.87;100.00
58534;BME280;44109;52.398;7.024;2023-05-02T00:10:35;101623.59;;;10.83;100.00
58534;BME280;44109;52.398;7.024;2023-05-02T00:13:05;101613.31;;;10.84;100.00
58534;BME280;44109;52.398;7.024;2023-05-02T00:15:33;101614.34;;;10.91;100.00
58534;BME280;44109;52.398;7.024;2023-05-02T00:18:00;101603.34;;;10.95;100.00
58534;BME280;44109;52.398;7.024;2023-05-02T00:20:30;101601.13;;;11.01;100.00
58534;BME280;44109;52.398;7.024;2023-05-02T00:23:01;101610.91;;;11.10;100.00
58534;BME280;44109;52.398;7.024;2023-05-02T00:25:28;101621.38;;;11.17;100.00
58534;BME280;44109;52.398;7.024;2023-05-02T00:27:56;101613.91;;;11.33;100.00
58534;BME280;44109;52.398;7.024;2023-05-02T00:30:24;101614.13;;;11.56;100.00
58534;BME280;44109;52.398;7.024;2023-05-02T00:32:51;101606.25;;;11.74;100.00
58534;BME280;44109;52.398;7.024;2023-05-02T00:35:20;101621.59;;;11.68;100.00
58534;BME280;44109;52.398;7.024;2023-05-02T00:37:47;101622.66;;;11.79;100.00
58534;BME280;44109;52.398;7.024;2023-05-02T00:40:17;101625.16;;;11.53;100.00
58534;BME280;44109;52.398;7.024;2023-05-02T00:42:44;101621.50;;;11.64;100.00
58534;BME280;44109;52.398;7.024;2023-05-02T00:45:12;101624.91;;;11.74;100.00
58534;BME280;44109;52.398;7.024;2023-05-02T00:47:40;101622.03;;;11.70;100.00
58534;BME280;44109;52.398;7.024;2023-05-02T00:50:09;101623.63;;;11.71;100.00
58534;BME280;44109;52.398;7.024;2023-05-02T00:52:36;101618.63;;;11.61;100.00
58534;BME280;44109;52.398;7.024;2023-05-02T00:55:05;101619.44;;;11.77;100.00
58534;BME280;44109;52.398;7.024;2023-05-02T00:57:34;101615.47;;;11.47;100.00
58534;BME280;44109;52.398;7.024;2023-05-02T01:00:02;101627.97;;;11.68;100.00
58534;BME280;44109;52.398;7.024;2023-05-02T01:02:38;101614.88;;;11.69;100.00
58534;BME280;44109;52.398;7.024;2023-05-02T01:05:15;101611.75;;;12.02;100.00
58534;BME280;44109;52.398;7.024;2023-05-02T01:07:58;101621.06;;;11.94;100.00
58534;BME280;44109;52.398;7.024;2023-05-02T01:10:40;101627.47;;;11.95;100.00
58534;BME280;44109;52.398;7.024;2023-05-02T01:13:20;101628.59;;;11.78;100.00
58534;BME280;44109;52.398;7.024;2023-05-02T01:15:49;101604.44;;;11.50;100.00
58534;BME280;44109;52.398;7.024;2023-05-02T01:18:21;101635.59;;;12.03;100.00
58534;BME280;44109;52.398;7.024;2023-05-02T01:20:56;101625.75;;;12.06;100.00
58534;BME280;44109;52.398;7.024;2023-05-02T01:23:31;101635.69;;;12.07;100.00
58534;BME280;44109;52.398;7.024;2023-05-02T01:26:16;101633.16;;;12.33;100.00
58534;BME280;44109;52.398;7.024;2023-05-02T01:29:01;101626.19;;;12.08;100.00
58534;BME280;44109;52.398;7.024;2023-05-02T01:31:34;101641.34;;;12.10;100.00
58534;BME280;44109;52.398;7.024;2023-05-02T01:34:07;101628.09;;;11.88;100.00
58534;BME280;44109;52.398;7.024;2023-05-02T01:36:39;101636.69;;;11.83;100.00
58534;BME280;44109;52.398;7.024;2023-05-02T01:39:10;101641.25;;;12.07;100.00
58534;BME280;44109;52.398;7.024;2023-05-02T01:41:42;101639.34;;;11.79;100.00
58534;BME280;44109;52.398;7.024;2023-05-02T01:44:14;101628.00;;;11.84;100.00
58534;BME280;44109;52.398;7.024;2023-05-02T01:46:43;101631.22;;;11.86;100.00
58534;BME280;44109;52.398;7.024;2023-05-02T01:49:12;101648.75;;;11.59;100.00
58534;BME280;44109;52.398;7.024;2023-05-02T01:51:44;101637.56;;;11.27;100.00
58534;BME280;44109;52.398;7.024;2023-05-02T01:54:15;101647.84;;;11.55;100.00
58534;BME280;44109;52.398;7.024;2023-05-02T01:56:45;101661.53;;;11.20;100.00
58534;BME280;44109;52.398;7.024;2023-05-02T01:59:17;101655.38;;;11.26;100.00
58534;BME280;44109;52.398;7.024;2023-05-02T02:01:50;101657.66;;;11.08;100.00
58534;BME280;44109;52.398;7.024;2023-05-02T02:04:19;101668.44;;;11.26;100.00
58534;BME280;44109;52.398;7.024;2023-05-02T02:06:53;101656.78;;;11.20;100.00
58534;BME280;44109;52.398;7.024;2023-05-02T02:09:24;101669.50;;;10.93;100.00
58534;BME280;44109;52.398;7.024;2023-05-02T02:11:56;101687.19;;;11.01;100.00
58534;BME280;44109;52.398;7.024;2023-05-02T02:14:33;101690.78;;;11.29;100.00
58534;BME280;44109;52.398;7.024;2023-05-02T02:17:07;101684.81;;;11.43;100.00
58534;BME280;44109;52.398;7.024;2023-05-02T02:19:40;101681.38;;;11.06;100.00
58534;BME280;44109;52.398;7.024;2023-05-02T02:22:10;101689.56;;;11.14;100.00
58534;BME280;44109;52.398;7.024;2023-05-02T02:24:42;101686.91;;;11.18;100.00
58534;BME280;44109;52.398;7.024;2023-05-02T02:27:12;101688.66;;;11.10;100.00
58534;BME280;44109;52.398;7.024;2023-05-02T02:29:42;101688.72;;;10.86;100.00
58534;BME280;44109;52.398;7.024;2023-05-02T02:32:10;101697.75;;;10.83;100.00
58534;BME280;44109;52.398;7.024;2023-05-02T02:34:38;101703.47;;;11.02;100.00
58534;BME280;44109;52.398;7.024;2023-05-02T02:37:08;101691.56;;;11.02;100.00
58534;BME280;44109;52.398;7.024;2023-05-02T02:39:47;101698.44;;;11.20;100.00
58534;BME280;44109;52.398;7.024;2023-05-02T02:42:34;101704.09;;;10.71;100.00
58534;BME280;44109;52.398;7.024;2023-05-02T02:45:17;101716.13;;;10.87;100.00
58534;BME280;44109;52.398;7.024;2023-05-02T02:47:58;101715.91;;;10.68;100.00
58534;BME280;44109;52.398;7.024;2023-05-02T02:50:35;101720.63;;;10.80;100.00
58534;BME280;44109;52.398;7.024;2023-05-02T02:53:14;101721.72;;;10.63;100.00
58534;BME280;44109;52.398;7.024;2023-05-02T02:55:51;101732.09;;;10.78;100.00
58534;BME280;44109;52.398;7.024;2023-05-02T02:58:30;101737.41;;;10.71;100.00
58534;BME280;44109;52.398;7.024;2023-05-02T03:01:14;101743.63;;;10.80;100.00
58534;BME280;44109;52.398;7.024;2023-05-02T03:03:47;101749.22;;;10.56;100.00
58534;BME280;44109;52.398;7.024;2023-05-02T03:06:18;101753.38;;;10.74;100.00
58534;BME280;44109;52.398;7.024;2023-05-02T03:08:46;101765.16;;;10.71;100.00
58534;BME280;44109;52.398;7.024;2023-05-02T03:11:13;101756.75;;;10.68;100.00
58534;BME280;44109;52.398;7.024;2023-05-02T03:13:41;101763.19;;;10.84;100.00
58534;BME280;44109;52.398;7.024;2023-05-02T03:16:37;101764.34;;;10.83;100.00
58534;BME280;44109;52.398;7.024;2023-05-02T03:19:07;101771.84;;;10.58;100.00
58534;BME280;44109;52.398;7.024;2023-05-02T03:21:35;101772.78;;;10.62;100.00
58534;BME280;44109;52.398;7.024;2023-05-02T03:24:03;101766.09;;;10.87;100.00
58534;BME280;44109;52.398;7.024;2023-05-02T03:26:32;101757.09;;;10.54;100.00
58534;BME280;44109;52.398;7.024;2023-05-02T03:28:59;101778.00;;;10.88;100.00
58534;BME280;44109;52.398;7.024;2023-05-02T03:31:27;101776.38;;;10.99;100.00
58534;BME280;44109;52.398;7.024;2023-05-02T03:33:56;101777.88;;;10.97;100.00
58534;BME280;44109;52.398;7.024;2023-05-02T03:36:23;101779.84;;;11.08;100.00
58534;BME280;44109;52.398;7.024;2023-05-02T03:38:51;101784.09;;;10.93;100.00
58534;BME280;44109;52.398;7.024;2023-05-02T03:41:19;101792.69;;;10.88;100.00
58534;BME280;44109;52.398;7.024;2023-05-02T03:43:47;101798.22;;;10.88;100.00
58534;BME280;44109;52.398;7.024;2023-05-02T03:46:14;101790.47;;;10.70;100.00
58534;BME280;44109;52.398;7.024;2023-05-02T03:48:42;101793.84;;;10.87;100.00
58534;BME280;44109;52.398;7.024;2023-05-02T03:51:12;101801.94;;;10.68;100.00
58534;BME280;44109;52.398;7.024;2023-05-02T03:53:40;101809.09;;;10.57;100.00
58534;BME280;44109;52.398;7.024;2023-05-02T03:56:08;101803.53;;;10.57;100.00
58534;BME280;44109;52.398;7.024;2023-05-02T03:58:36;101811.41;;;10.67;100.00
58534;BME280;44109;52.398;7.024;2023-05-02T04:01:07;101809.56;;;10.59;100.00
58534;BME280;44109;52.398;7.024;2023-05-02T04:03:39;101815.56;;;10.61;100.00
58534;BME280;44109;52.398;7.024;2023-05-02T04:06:07;101823.91;;;10.85;100.00
58534;BME280;44109;52.398;7.024;2023-05-02T04:08:36;101817.53;;;10.60;100.00
58534;BME280;44109;52.398;7.024;2023-05-02T04:11:04;101821.91;;;10.61;100.00
58534;BME280;44109;52.398;7.024;2023-05-02T04:13:32;101829.47;;;10.73;100.00
58534;BME280;44109;52.398;7.024;2023-05-02T04:15:59;101835.44;;;10.51;100.00
58534;BME280;44109;52.398;7.024;2023-05-02T04:18:27;101827.94;;;10.51;100.00
58534;BME280;44109;52.398;7.024;2023-05-02T04:20:56;101846.97;;;10.40;100.00
58534;BME280;44109;52.398;7.024;2023-05-02T04:23:23;101855.63;;;10.27;100.00
58534;BME280;44109;52.398;7.024;2023-05-02T04:25:53;101871.56;;;9.67;100.00
58534;BME280;44109;52.398;7.024;2023-05-02T04:28:21;101884.31;;;9.68;100.00
58534;BME280;44109;52.398;7.024;2023-05-02T04:31:03;101885.63;;;9.41;100.00
58534;BME280;44109;52.398;7.024;2023-05-02T04:33:31;101894.69;;;9.21;100.00
58534;BME280;44109;52.398;7.024;2023-05-02T04:35:59;101880.31;;;8.98;100.00
58534;BME280;44109;52.398;7.024;2023-05-02T04:38:26;101899.31;;;9.08;100.00
58534;BME280;44109;52.398;7.024;2023-05-02T04:40:55;101885.34;;;9.04;100.00
58534;BME280;44109;52.398;7.024;2023-05-02T04:43:23;101887.56;;;9.11;100.00
58534;BME280;44109;52.398;7.024;2023-05-02T04:45:51;101892.34;;;9.02;100.00
58534;BME280;44109;52.398;7.024;2023-05-02T04:48:18;101923.97;;;8.92;100.00
58534;BME280;44109;52.398;7.024;2023-05-02T04:50:46;101906.34;;;9.05;100.00
58534;BME280;44109;52.398;7.024;2023-05-02T04:53:14;101909.13;;;8.97;100.00
58534;BME280;44109;52.398;7.024;2023-05-02T04:55:42;101933.19;;;9.05;100.00
58534;BME280;44109;52.398;7.024;2023-05-02T04:58:11;101943.00;;;8.94;100.00
58534;BME280;44109;52.398;7.024;2023-05-02T05:00:38;101944.69;;;8.77;100.00
58534;BME280;44109;52.398;7.024;2023-05-02T05:03:06;101961.50;;;8.46;100.00
58534;BME280;44109;52.398;7.024;2023-05-02T05:05:33;101949.47;;;8.51;100.00
58534;BME280;44109;52.398;7.024;2023-05-02T05:08:01;101974.00;;;8.18;100.00
58534;BME280;44109;52.398;7.024;2023-05-02T05:10:29;101972.03;;;8.01;100.00
58534;BME280;44109;52.398;7.024;2023-05-02T05:12:56;101979.66;;;8.12;100.00
58534;BME280;44109;52.398;7.024;2023-05-02T05:15:25;101981.16;;;8.27;100.00
58534;BME280;44109;52.398;7.024;2023-05-02T05:17:53;101987.38;;;8.42;100.00
58534;BME280;44109;52.398;7.024;2023-05-02T05:20:21;101978.56;;;8.22;100.00
58534;BME280;44109;52.398;7.024;2023-05-02T05:22:48;101988.94;;;8.17;100.00
58534;BME280;44109;52.398;7.024;2023-05-02T05:25:16;102001.31;;;8.19;100.00
58534;BME280;44109;52.398;7.024;2023-05-02T05:27:44;102009.59;;;8.10;100.00
58534;BME280;44109;52.398;7.024;2023-05-02T05:30:11;102020.00;;;8.13;100.00
58534;BME280;44109;52.398;7.024;2023-05-02T05:32:40;102018.06;;;8.23;100.00
58534;BME280;44109;52.398;7.024;2023-05-02T05:35:09;102020.31;;;8.21;100.00
58534;BME280;44109;52.398;7.024;2023-05-02T05:37:37;102024.22;;;8.02;100.00
58534;BME280;44109;52.398;7.024;2023-05-02T05:40:06;102027.16;;;8.14;100.00
58534;BME280;44109;52.398;7.024;2023-05-02T05:42:34;102034.66;;;8.14;100.00
58534;BME280;44109;52.398;7.024;2023-05-02T05:45:02;102030.56;;;8.20;100.00
58534;BME280;44109;52.398;7.024;2023-05-02T05:47:31;102041.31;;;8.22;100.00
58534;BME280;44109;52.398;7.024;2023-05-02T05:50:00;102040.84;;;7.62;100.00
58534;BME280;44109;52.398;7.024;2023-05-02T05:52:27;102053.19;;;8.13;100.00
58534;BME280;44109;52.398;7.024;2023-05-02T05:54:55;102051.28;;;7.74;100.00
58534;BME280;44109;52.398;7.024;2023-05-02T05:57:23;102070.81;;;7.86;100.00
58534;BME280;44109;52.398;7.024;2023-05-02T05:59:50;102064.63;;;7.81;100.00
58534;BME280;44109;52.398;7.024;2023-05-02T06:02:18;102069.69;;;7.87;100.00
58534;BME280;44109;52.398;7.024;2023-05-02T06:04:46;102066.22;;;7.73;100.00
58534;BME280;44109;52.398;7.024;2023-05-02T06:07:15;102076.63;;;7.76;100.00
58534;BME280;44109;52.398;7.024;2023-05-02T06:09:42;102086.22;;;7.79;100.00
58534;BME280;44109;52.398;7.024;2023-05-02T06:12:10;102081.34;;;7.76;100.00
58534;BME280;44109;52.398;7.024;2023-05-02T06:14:38;102074.28;;;8.01;100.00
58534;BME280;44109;52.398;7.024;2023-05-02T06:17:06;102103.75;;;8.23;100.00
58534;BME280;44109;52.398;7.024;2023-05-02T06:19:33;102096.06;;;8.02;100.00
58534;BME280;44109;52.398;7.024;2023-05-02T06:22:01;102099.19;;;8.18;100.00
58534;BME280;44109;52.398;7.024;2023-05-02T06:24:30;102101.22;;;8.44;100.00
58534;BME280;44109;52.398;7.024;2023-05-02T06:26:58;102104.88;;;8.13;100.00
58534;BME280;44109;52.398;7.024;2023-05-02T06:29:26;102103.56;;;8.10;100.00
58534;BME280;44109;52.398;7.024;2023-05-02T06:31:54;102109.03;;;8.42;100.00
58534;BME280;44109;52.398;7.024;2023-05-02T06:34:22;102100.31;;;8.08;100.00
58534;BME280;44109;52.398;7.024;2023-05-02T06:36:53;102105.66;;;8.05;100.00
58534;BME280;44109;52.398;7.024;2023-05-02T06:39:22;102116.13;;;8.34;100.00
58534;BME280;44109;52.398;7.024;2023-05-02T06:41:55;102122.19;;;8.45;100.00
58534;BME280;44109;52.398;7.024;2023-05-02T06:44:23;102127.44;;;8.55;100.00
58534;BME280;44109;52.398;7.024;2023-05-02T06:46:51;102132.63;;;8.56;100.00
58534;BME280;44109;52.398;7.024;2023-05-02T06:49:20;102141.09;;;8.69;100.00
58534;BME280;44109;52.398;7.024;2023-05-02T06:51:48;102156.56;;;8.78;100.00
58534;BME280;44109;52.398;7.024;2023-05-02T06:54:16;102157.03;;;8.54;100.00
58534;BME280;44109;52.398;7.024;2023-05-02T06:56:43;102164.06;;;8.69;100.00
58534;BME280;44109;52.398;7.024;2023-05-02T06:59:12;102158.50;;;8.52;100.00
58534;BME280;44109;52.398;7.024;2023-05-02T07:01:42;102155.75;;;8.69;100.00
58534;BME280;44109;52.398;7.024;2023-05-02T07:04:10;102163.41;;;9.07;100.00
58534;BME280;44109;52.398;7.024;2023-05-02T07:06:39;102164.03;;;9.21;100.00
58534;BME280;44109;52.398;7.024;2023-05-02T07:09:06;102172.13;;;9.61;100.00
58534;BME280;44109;52.398;7.024;2023-05-02T07:11:34;102181.63;;;9.25;97.76
58534;BME280;44109;52.398;7.024;2023-05-02T07:14:01;102177.06;;;9.29;91.78
58534;BME280;44109;52.398;7.024;2023-05-02T07:16:30;102174.44;;;9.59;98.76
58534;BME280;44109;52.398;7.024;2023-05-02T07:18:58;102183.25;;;9.44;92.59
58534;BME280;44109;52.398;7.024;2023-05-02T07:21:26;102189.13;;;9.16;91.13
58534;BME280;44109;52.398;7.024;2023-05-02T07:23:54;102181.28;;;9.53;91.69
58534;BME280;44109;52.398;7.024;2023-05-02T07:26:22;102189.13;;;9.33;86.49
58534;BME280;44109;52.398;7.024;2023-05-02T07:28:54;102193.66;;;9.55;86.79
58534;BME280;44109;52.398;7.024;2023-05-02T07:31:21;102194.56;;;10.24;93.02
58534;BME280;44109;52.398;7.024;2023-05-02T07:33:50;102183.88;;;10.13;86.09
58534;BME280;44109;52.398;7.024;2023-05-02T07:36:18;102202.75;;;10.20;84.61
58534;BME280;44109;52.398;7.024;2023-05-02T07:38:45;102200.59;;;10.34;85.56
58534;BME280;44109;52.398;7.024;2023-05-02T07:41:13;102205.66;;;10.24;82.83
58534;BME280;44109;52.398;7.024;2023-05-02T07:43:41;102186.00;;;10.46;85.26
58534;BME280;44109;52.398;7.024;2023-05-02T07:46:08;102195.38;;;10.62;81.91
58534;BME280;44109;52.398;7.024;2023-05-02T07:48:36;102203.13;;;10.78;75.93
58534;BME280;44109;52.398;7.024;2023-05-02T07:51:10;102202.69;;;10.37;78.34
58534;BME280;44109;52.398;7.024;2023-05-02T07:53:38;102194.44;;;10.58;79.19
58534;BME280;44109;52.398;7.024;2023-05-02T07:56:06;102209.34;;;10.96;78.50
58534;BME280;44109;52.398;7.024;2023-05-02T07:58:34;102219.09;;;11.02;73.42
58534;BME280;44109;52.398;7.024;2023-05-02T08:01:02;102215.63;;;11.47;69.13
58534;BME280;44109;52.398;7.024;2023-05-02T08:03:30;102221.53;;;10.82;68.68
58534;BME280;44109;52.398;7.024;2023-05-02T08:05:58;102230.47;;;10.88;70.54
58534;BME280;44109;52.398;7.024;2023-05-02T08:08:28;102235.28;;;10.49;66.25
58534;BME280;44109;52.398;7.024;2023-05-02T08:10:56;102242.72;;;10.28;65.36
58534;BME280;44109;52.398;7.024;2023-05-02T08:13:23;102243.19;;;10.68;65.54
58534;BME280;44109;52.398;7.024;2023-05-02T08:15:52;102231.94;;;10.85;66.23
58534;BME280;44109;52.398;7.024;2023-05-02T08:18:22;102236.31;;;11.16;68.23
58534;BME280;44109;52.398;7.024;2023-05-02T08:20:50;102230.66;;;11.79;62.75
58534;BME280;44109;52.398;7.024;2023-05-02T08:23:18;102247.69;;;11.02;60.21
58534;BME280;44109;52.398;7.024;2023-05-02T08:25:47;102229.94;;;10.95;62.65
58534;BME280;44109;52.398;7.024;2023-05-02T08:28:14;102244.44;;;10.71;66.07
58534;BME280;44109;52.398;7.024;2023-05-02T08:30:42;102259.66;;;10.26;63.59
58534;BME280;44109;52.398;7.024;2023-05-02T08:33:10;102260.28;;;11.00;65.04
58534;BME280;44109;52.398;7.024;2023-05-02T08:35:38;102259.03;;;11.72;65.08
58534;BME280;44109;52.398;7.024;2023-05-02T08:38:05;102265.44;;;11.10;63.23
58534;BME280;44109;52.398;7.024;2023-05-02T08:40:35;102259.66;;;10.94;63.14
58534;BME280;44109;52.398;7.024;2023-05-02T08:43:05;102250.38;;;10.90;63.27
58534;BME280;44109;52.398;7.024;2023-05-02T08:45:34;102273.22;;;10.96;64.06
58534;BME280;44109;52.398;7.024;2023-05-02T08:48:06;102274.63;;;11.02;61.27
58534;BME280;44109;52.398;7.024;2023-05-02T08:50:36;102274.53;;;11.40;62.01
58534;BME280;44109;52.398;7.024;2023-05-02T08:53:04;102293.47;;;10.96;64.26
58534;BME280;44109;52.398;7.024;2023-05-02T08:55:33;102290.44;;;10.80;63.50
58534;BME280;44109;52.398;7.024;2023-05-02T08:58:07;102298.72;;;10.89;65.80
58534;BME280;44109;52.398;7.024;2023-05-02T09:00:37;102302.38;;;10.43;64.88
58534;BME280;44109;52.398;7.024;2023-05-02T09:03:13;102295.97;;;10.51;67.97
58534;BME280;44109;52.398;7.024;2023-05-02T09:05:51;102309.44;;;10.14;69.81
58534;BME280;44109;52.398;7.024;2023-05-02T09:08:23;102299.56;;;10.51;67.01
58534;BME280;44109;52.398;7.024;2023-05-02T09:10:51;102307.50;;;10.61;64.14
58534;BME280;44109;52.398;7.024;2023-05-02T09:13:34;102317.59;;;11.25;63.42
58534;BME280;44109;52.398;7.024;2023-05-02T09:16:04;102316.44;;;10.76;61.74
58534;BME280;44109;52.398;7.024;2023-05-02T09:18:35;102329.50;;;10.28;62.95
58534;BME280;44109;52.398;7.024;2023-05-02T09:21:05;102322.31;;;10.19;62.91
58534;BME280;44109;52.398;7.024;2023-05-02T09:23:35;102319.03;;;10.43;64.12
58534;BME280;44109;52.398;7.024;2023-05-02T09:26:15;102324.06;;;10.49;64.75
58534;BME280;44109;52.398;7.024;2023-05-02T09:28:46;102330.81;;;10.78;61.29
58534;BME280;44109;52.398;7.024;2023-05-02T09:31:16;102340.47;;;11.01;60.36
58534;BME280;44109;52.398;7.024;2023-05-02T09:33:45;102331.53;;;10.96;63.64
58534;BME280;44109;52.398;7.024;2023-05-02T09:36:14;102336.81;;;10.80;61.93
58534;BME280;44109;52.398;7.024;2023-05-02T09:38:45;102338.19;;;10.65;59.94
58534;BME280;44109;52.398;7.024;2023-05-02T09:41:15;102343.41;;;11.05;61.14
58534;BME280;44109;52.398;7.024;2023-05-02T09:43:55;102341.88;;;11.58;57.65
58534;BME280;44109;52.398;7.024;2023-05-02T09:46:23;102354.91;;;10.95;57.46
58534;BME280;44109;52.398;7.024;2023-05-02T09:48:51;102348.38;;;11.62;62.38
58534;BME280;44109;52.398;7.024;2023-05-02T09:51:21;102354.22;;;11.27;58.69
58534;BME280;44109;52.398;7.024;2023-05-02T09:53:51;102367.03;;;11.11;58.86
58534;BME280;44109;52.398;7.024;2023-05-02T09:56:19;102365.03;;;11.20;57.73
58534;BME280;44109;52.398;7.024;2023-05-02T09:58:47;102371.63;;;11.07;58.44
58534;BME280;44109;52.398;7.024;2023-05-02T10:01:18;102370.44;;;10.87;58.42
58534;BME280;44109;52.398;7.024;2023-05-02T10:03:47;102377.00;;;10.82;59.49
58534;BME280;44109;52.398;7.024;2023-05-02T10:06:15;102377.97;;;11.16;56.74
58534;BME280;44109;52.398;7.024;2023-05-02T10:08:43;102383.72;;;11.11;58.09
58534;BME280;44109;52.398;7.024;2023-05-02T10:11:12;102373.28;;;11.79;57.67
58534;BME280;44109;52.398;7.024;2023-05-02T10:13:42;102380.34;;;11.26;56.60
58534;BME280;44109;52.398;7.024;2023-05-02T10:16:11;102389.91;;;11.08;56.93
58534;BME280;44109;52.398;7.024;2023-05-02T10:18:47;102383.13;;;10.97;55.80
58534;BME280;44109;52.398;7.024;2023-05-02T10:21:24;102388.25;;;11.15;52.77
58534;BME280;44109;52.398;7.024;2023-05-02T10:23:53;102388.94;;;11.63;53.72
58534;BME280;44109;52.398;7.024;2023-05-02T10:26:22;102406.00;;;11.32;52.67
58534;BME280;44109;52.398;7.024;2023-05-02T10:28:50;102397.59;;;11.40;53.93
58534;BME280;44109;52.398;7.024;2023-05-02T10:31:18;102384.16;;;11.42;53.22
58534;BME280;44109;52.398;7.024;2023-05-02T10:33:50;102394.41;;;11.51;54.10
58534;BME280;44109;52.398;7.024;2023-05-02T10:36:20;102391.91;;;11.37;52.51
58534;BME280;44109;52.398;7.024;2023-05-02T10:38:48;102385.78;;;11.43;55.29
58534;BME280;44109;52.398;7.024;2023-05-02T10:41:20;102389.25;;;11.91;51.29
58534;BME280;44109;52.398;7.024;2023-05-02T10:43:52;102375.25;;;12.78;51.31
58534;BME280;44109;52.398;7.024;2023-05-02T10:46:30;102391.44;;;12.52;48.36
58534;BME280;44109;52.398;7.024;2023-05-02T10:49:01;102372.91;;;12.23;50.22
58534;BME280;44109;52.398;7.024;2023-05-02T10:51:31;102392.97;;;11.95;55.09
58534;BME280;44109;52.398;7.024;2023-05-02T10:54:19;102385.50;;;11.87;53.79
58534;BME280;44109;52.398;7.024;2023-05-02T10:57:10;102387.16;;;12.21;51.51
58534;BME280;44109;52.398;7.024;2023-05-02T10:59:39;102388.66;;;12.18;52.47
58534;BME280;44109;52.398;7.024;2023-05-02T11:05:14;102376.19;;;12.82;49.03
58534;BME280;44109;52.398;7.024;2023-05-02T11:07:43;102357.59;;;12.74;47.72
58534;BME280;44109;52.398;7.024;2023-05-02T11:10:28;102371.34;;;12.46;46.94
58534;BME280;44109;52.398;7.024;2023-05-02T11:13:03;102384.19;;;12.38;47.62
58534;BME280;44109;52.398;7.024;2023-05-02T11:15:55;102385.53;;;12.65;48.05
58534;BME280;44109;52.398;7.024;2023-05-02T11:18:24;102386.47;;;12.69;47.93
58534;BME280;44109;52.398;7.024;2023-05-02T11:21:26;102370.84;;;13.38;46.60
58534;BME280;44109;52.398;7.024;2023-05-02T11:27:38;102390.72;;;12.42;50.46
58534;BME280;44109;52.398;7.024;2023-05-02T11:30:07;102381.03;;;12.28;50.17
58534;BME280;44109;52.398;7.024;2023-05-02T11:33:20;102371.72;;;12.44;47.91
58534;BME280;44109;52.398;7.024;2023-05-02T11:35:48;102378.81;;;13.64;51.17
58534;BME280;44109;52.398;7.024;2023-05-02T11:38:21;102323.03;;;13.00;50.60
58534;BME280;44109;52.398;7.024;2023-05-02T11:40:51;102400.19;;;13.48;46.86
58534;BME280;44109;52.398;7.024;2023-05-02T11:43:24;102375.97;;;12.42;48.43
58534;BME280;44109;52.398;7.024;2023-05-02T11:45:56;102352.50;;;12.88;48.84
58534;BME280;44109;52.398;7.024;2023-05-02T11:48:26;102386.28;;;13.11;48.52
58534;BME280;44109;52.398;7.024;2023-05-02T11:50:59;102376.75;;;12.88;48.34
58534;BME280;44109;52.398;7.024;2023-05-02T11:53:33;102382.66;;;14.00;49.84
58534;BME280;44109;52.398;7.024;2023-05-02T11:56:09;102398.22;;;13.61;46.65
58534;BME280;44109;52.398;7.024;2023-05-02T11:58:39;102370.25;;;12.84;46.87
58534;BME280;44109;52.398;7.024;2023-05-02T12:01:12;102382.81;;;12.32;48.28
58534;BME280;44109;52.398;7.024;2023-05-02T12:03:44;102346.53;;;12.53;49.76
58534;BME280;44109;52.398;7.024;2023-05-02T12:06:17;102421.31;;;12.88;50.01
58534;BME280;44109;52.398;7.024;2023-05-02T12:09:08;102416.97;;;12.54;48.78
58534;BME280;44109;52.398;7.024;2023-05-02T12:11:41;102420.81;;;12.74;50.65
58534;BME280;44109;52.398;7.024;2023-05-02T12:14:10;102431.88;;;13.07;48.05
58534;BME280;44109;52.398;7.024;2023-05-02T12:16:40;102415.53;;;13.05;47.03
58534;BME280;44109;52.398;7.024;2023-05-02T12:19:11;102419.00;;;13.63;47.67
58534;BME280;44109;52.398;7.024;2023-05-02T12:21:39;102450.38;;;13.73;49.81
58534;BME280;44109;52.398;7.024;2023-05-02T12:24:08;102436.31;;;13.20;48.97
58534;BME280;44109;52.398;7.024;2023-05-02T12:26:37;102427.94;;;13.69;46.86
58534;BME280;44109;52.398;7.024;2023-05-02T12:29:04;102428.91;;;13.24;46.39
58534;BME280;44109;52.398;7.024;2023-05-02T12:31:35;102425.59;;;13.71;47.51
58534;BME280;44109;52.398;7.024;2023-05-02T12:34:03;102445.63;;;13.24;48.08
58534;BME280;44109;52.398;7.024;2023-05-02T12:36:31;102453.25;;;13.15;48.16
58534;BME280;44109;52.398;7.024;2023-05-02T12:39:00;102453.50;;;13.71;47.54
58534;BME280;44109;52.398;7.024;2023-05-02T12:41:36;102446.28;;;12.97;47.54
58534;BME280;44109;52.398;7.024;2023-05-02T12:44:08;102451.16;;;13.00;49.59
58534;BME280;44109;52.398;7.024;2023-05-02T12:46:36;102451.13;;;12.87;48.27
58534;BME280;44109;52.398;7.024;2023-05-02T12:49:05;102462.09;;;12.72;49.37
58534;BME280;44109;52.398;7.024;2023-05-02T12:51:52;102454.53;;;11.85;47.85
58534;BME280;44109;52.398;7.024;2023-05-02T12:54:21;102461.69;;;12.82;50.59
58534;BME280;44109;52.398;7.024;2023-05-02T12:56:51;102452.03;;;12.79;49.07
58534;BME280;44109;52.398;7.024;2023-05-02T12:59:26;102457.50;;;12.42;49.21
58534;BME280;44109;52.398;7.024;2023-05-02T13:01:58;102456.38;;;12.23;48.48
58534;BME280;44109;52.398;7.024;2023-05-02T13:04:37;102450.53;;;13.27;53.32
58534;BME280;44109;52.398;7.024;2023-05-02T13:07:07;102466.50;;;13.06;50.22
58534;BME280;44109;52.398;7.024;2023-05-02T13:09:42;102457.13;;;13.59;47.92
58534;BME280;44109;52.398;7.024;2023-05-02T13:12:11;102466.72;;;13.86;51.33